Time;durP1;ratioP1;P1;durP2;ratioP2;P2;SDS_P1;SDS_P2;PMS_P1;PMS_P2;Temp;Humidity;BMP_temperature;BMP_pressure;BME280_temperature;BME280_humidity;BME280_pressure;Samples;Min_cycle;Max_cycle;Signal;HPM_P1;HPM_P2
2024/01/31 00:00:08;;;;;;;3.22;1.67;;;;;;;;;;5015212;28;20042;-68
2024/01/31 00:02:33;;;;;;;4.00;2.13;;;;;;;;;;5014983;28;20038;-68
2024/01/31 00:04:59;;;;;;;5.97;2.97;;;;;;;;;;5017206;28;20091;-68
2024/01/31 00:07:24;;;;;;;5.25;2.28;;;;;;;;;;5002860;28;20044;-69
2024/01/31 00:09:50;;;;;;;9.48;2.10;;;;;;;;;;5013357;28;20381;-68
2024/01/31 00:12:15;;;;;;;8.23;2.17;;;;;;;;;;5017604;28;20456;-68
2024/01/31 00:14:43;;;;;;;4.85;2.13;;;;;;;;;;5021447;28;20607;-68
2024/01/31 00:17:09;;;;;;;6.32;2.28;;;;;;;;;;5017088;28;20054;-68
2024/01/31 00:19:34;;;;;;;5.90;2.30;;;;;;;;;;5015704;28;20041;-69
2024/01/31 00:22:00;;;;;;;8.27;2.17;;;;;;;;;;5014503;28;20041;-68
2024/01/31 00:24:25;;;;;;;3.90;2.50;;;;;;;;;;5019809;28;20169;-69
2024/01/31 00:26:51;;;;;;;3.97;2.22;;;;;;;;;;5017546;28;20037;-69
2024/01/31 00:29:16;;;;;;;5.63;2.50;;;;;;;;;;5017122;28;20096;-68
2024/01/31 00:31:41;;;;;;;25.38;3.08;;;;;;;;;;5013827;28;20080;-68
2024/01/31 00:34:07;;;;;;;5.03;1.90;;;;;;;;;;5018971;28;20038;-68
2024/01/31 00:36:32;;;;;;;10.93;2.65;;;;;;;;;;5017686;28;20409;-68
2024/01/31 00:38:59;;;;;;;7.50;1.92;;;;;;;;;;5014202;28;20405;-68
2024/01/31 00:41:25;;;;;;;4.78;2.17;;;;;;;;;;5018997;28;20025;-68
2024/01/31 00:43:50;;;;;;;4.38;2.15;;;;;;;;;;5028236;28;20068;-69
2024/01/31 00:46:16;;;;;;;10.32;3.47;;;;;;;;;;5028070;28;20033;-68
2024/01/31 00:48:43;;;;;;;6.10;2.45;;;;;;;;;;5028708;28;20495;-68
2024/01/31 00:51:12;;;;;;;4.57;2.60;;;;;;;;;;5005707;28;20502;-68
2024/01/31 00:53:40;;;;;;;10.25;2.50;;;;;;;;;;4999326;28;20041;-68
2024/01/31 00:56:08;;;;;;;6.68;2.15;;;;;;;;;;5014276;28;20045;-69
2024/01/31 00:58:34;;;;;;;6.95;2.80;;;;;;;;;;5020653;28;20042;-68
2024/01/31 01:00:59;;;;;;;6.55;3.03;;;;;;;;;;5018584;28;20029;-68
2024/01/31 01:03:24;;;;;;;13.20;2.65;;;;;;;;;;5016901;28;20042;-69
2024/01/31 01:05:50;;;;;;;8.57;2.45;;;;;;;;;;5010378;28;20097;-68
2024/01/31 01:08:15;;;;;;;9.85;2.30;;;;;;;;;;5016045;28;20036;-68
2024/01/31 01:10:40;;;;;;;6.65;2.60;;;;;;;;;;5014289;28;20117;-68
2024/01/31 01:13:07;;;;;;;8.93;2.65;;;;;;;;;;5019408;28;20069;-68
2024/01/31 01:15:32;;;;;;;12.02;2.15;;;;;;;;;;5015597;28;20032;-68
2024/01/31 01:17:57;;;;;;;4.03;1.98;;;;;;;;;;5028116;28;20049;-68
2024/01/31 01:20:23;;;;;;;3.03;1.85;;;;;;;;;;5025117;28;20137;-69
2024/01/31 01:22:48;;;;;;;4.65;2.38;;;;;;;;;;5014719;28;20034;-69
2024/01/31 01:25:15;;;;;;;7.47;2.78;;;;;;;;;;5029920;28;20523;-69
2024/01/31 01:27:41;;;;;;;3.67;2.00;;;;;;;;;;4998452;28;20496;-69
2024/01/31 01:30:07;;;;;;;12.30;2.35;;;;;;;;;;5014881;28;20022;-68
2024/01/31 01:32:32;;;;;;;5.55;2.20;;;;;;;;;;5019222;28;20042;-68
2024/01/31 01:34:58;;;;;;;4.75;2.00;;;;;;;;;;5019178;28;20033;-68
2024/01/31 01:37:23;;;;;;;8.10;2.80;;;;;;;;;;5020009;28;20160;-68
2024/01/31 01:39:48;;;;;;;10.35;3.00;;;;;;;;;;5010080;28;20610;-68
2024/01/31 01:42:14;;;;;;;8.35;2.10;;;;;;;;;;5013080;28;20037;-68
2024/01/31 01:44:44;;;;;;;7.90;2.35;;;;;;;;;;5019989;28;20049;-68
2024/01/31 01:47:10;;;;;;;4.00;1.83;;;;;;;;;;5021175;28;20041;-68
2024/01/31 01:49:36;;;;;;;9.30;2.55;;;;;;;;;;5001600;28;20042;-68
2024/01/31 01:52:02;;;;;;;4.00;2.13;;;;;;;;;;5019271;28;20414;-68
2024/01/31 01:54:27;;;;;;;8.70;2.30;;;;;;;;;;5013311;28;20044;-69
2024/01/31 01:56:52;;;;;;;6.35;2.53;;;;;;;;;;5020923;28;20072;-68
2024/01/31 01:59:18;;;;;;;14.35;2.83;;;;;;;;;;4999291;28;20021;-68
2024/01/31 02:01:43;;;;;;;8.15;2.40;;;;;;;;;;5020771;28;20454;-68
2024/01/31 02:04:09;;;;;;;4.57;2.20;;;;;;;;;;5001818;28;20103;-69
2024/01/31 02:06:34;;;;;;;6.65;1.98;;;;;;;;;;5009423;28;20038;-68
2024/01/31 02:09:00;;;;;;;8.00;2.28;;;;;;;;;;5013492;28;20457;-68
2024/01/31 02:11:25;;;;;;;10.60;2.60;;;;;;;;;;5011828;28;20046;-69
2024/01/31 02:13:50;;;;;;;2.75;1.55;;;;;;;;;;4998842;28;20033;-69
2024/01/31 02:16:16;;;;;;;7.93;2.45;;;;;;;;;;5015741;28;20091;-68
2024/01/31 02:18:41;;;;;;;5.72;2.47;;;;;;;;;;5019296;28;20088;-68
2024/01/31 02:21:07;;;;;;;6.68;2.28;;;;;;;;;;5012868;28;20042;-69
2024/01/31 02:23:32;;;;;;;4.95;2.25;;;;;;;;;;5019969;28;20088;-68
2024/01/31 02:25:57;;;;;;;8.50;2.15;;;;;;;;;;5020414;28;20098;-68
2024/01/31 02:28:22;;;;;;;5.03;2.28;;;;;;;;;;5008202;28;20121;-68
2024/01/31 02:30:48;;;;;;;4.30;2.65;;;;;;;;;;5015946;28;20148;-67
2024/01/31 02:33:13;;;;;;;12.98;2.45;;;;;;;;;;5020008;28;20461;-68
2024/01/31 02:35:39;;;;;;;4.28;2.55;;;;;;;;;;5014310;28;20496;-68
2024/01/31 02:38:04;;;;;;;5.47;2.58;;;;;;;;;;5013285;28;20045;-68
2024/01/31 02:40:29;;;;;;;5.10;2.10;;;;;;;;;;5014584;28;20619;-69
2024/01/31 02:42:56;;;;;;;3.80;2.20;;;;;;;;;;5018644;28;20033;-69
2024/01/31 02:45:22;;;;;;;10.93;1.90;;;;;;;;;;4992530;28;20048;-68
2024/01/31 02:47:47;;;;;;;9.00;2.22;;;;;;;;;;5019394;28;20046;-69
2024/01/31 02:50:13;;;;;;;4.60;2.38;;;;;;;;;;5017654;28;20105;-68
2024/01/31 02:52:38;;;;;;;4.43;2.10;;;;;;;;;;5017246;28;20030;-68
2024/01/31 02:55:04;;;;;;;7.32;2.55;;;;;;;;;;5020762;28;20115;-67
2024/01/31 02:57:30;;;;;;;3.63;1.77;;;;;;;;;;5020697;28;20030;-68
2024/01/31 02:59:55;;;;;;;6.97;2.10;;;;;;;;;;5016406;28;20548;-68
2024/01/31 03:02:20;;;;;;;3.78;2.38;;;;;;;;;;5016618;28;20033;-68
2024/01/31 03:04:46;;;;;;;4.38;2.63;;;;;;;;;;5022266;28;20029;-68
2024/01/31 03:07:11;;;;;;;10.85;1.98;;;;;;;;;;5012403;28;20084;-68
2024/01/31 03:09:37;;;;;;;14.00;2.97;;;;;;;;;;5015071;28;20041;-68
2024/01/31 03:12:06;;;;;;;7.22;2.38;;;;;;;;;;5008293;28;20033;-69
2024/01/31 03:14:35;;;;;;;4.70;2.67;;;;;;;;;;5016110;28;20037;-68
2024/01/31 03:17:00;;;;;;;3.58;2.03;;;;;;;;;;4997608;28;20572;-68
2024/01/31 03:19:31;;;;;;;5.55;1.90;;;;;;;;;;5012240;28;20124;-68
2024/01/31 03:21:57;;;;;;;3.35;2.03;;;;;;;;;;4993422;28;20489;-68
2024/01/31 03:24:22;;;;;;;2.95;1.70;;;;;;;;;;5014858;28;20053;-69
2024/01/31 03:26:48;;;;;;;5.53;2.10;;;;;;;;;;5006999;28;20029;-68
2024/01/31 03:29:13;;;;;;;5.32;1.95;;;;;;;;;;5021042;28;20522;-68
2024/01/31 03:31:38;;;;;;;3.63;1.70;;;;;;;;;;5014361;28;20484;-68
2024/01/31 03:34:06;;;;;;;8.90;2.22;;;;;;;;;;5015586;28;20033;-70
2024/01/31 03:36:32;;;;;;;4.13;2.20;;;;;;;;;;5018623;28;20400;-69
2024/01/31 03:38:59;;;;;;;20.23;2.17;;;;;;;;;;5019173;28;20037;-69
2024/01/31 03:41:27;;;;;;;5.03;2.63;;;;;;;;;;5017152;28;20057;-68
2024/01/31 03:43:53;;;;;;;3.00;1.40;;;;;;;;;;5014775;28;20053;-68
2024/01/31 03:46:18;;;;;;;4.32;1.70;;;;;;;;;;5021936;28;20396;-68
2024/01/31 03:48:44;;;;;;;3.88;1.75;;;;;;;;;;5011049;28;20030;-69
2024/01/31 03:51:19;;;;;;;3.22;1.73;;;;;;;;;;5013431;28;20477;-68
2024/01/31 03:53:46;;;;;;;6.07;1.52;;;;;;;;;;5005883;28;20034;-68
2024/01/31 03:56:11;;;;;;;5.03;1.55;;;;;;;;;;4999033;28;20112;-68
2024/01/31 03:58:37;;;;;;;6.40;1.83;;;;;;;;;;5017936;28;20044;-68
2024/01/31 04:01:03;;;;;;;3.72;1.85;;;;;;;;;;4992029;28;20043;-68
2024/01/31 04:03:28;;;;;;;2.53;1.77;;;;;;;;;;5013735;28;20493;-68
2024/01/31 04:05:55;;;;;;;7.07;2.03;;;;;;;;;;5016583;28;20053;-68
2024/01/31 04:08:20;;;;;;;4.15;1.90;;;;;;;;;;5027613;28;20621;-68
2024/01/31 04:10:46;;;;;;;3.25;1.85;;;;;;;;;;5020649;28;20116;-68
2024/01/31 04:13:11;;;;;;;6.38;1.98;;;;;;;;;;5026567;28;20076;-68
2024/01/31 04:15:37;;;;;;;6.57;1.83;;;;;;;;;;5027165;28;20065;-67
2024/01/31 04:18:03;;;;;;;4.68;1.65;;;;;;;;;;5029857;28;20081;-69
2024/01/31 04:20:28;;;;;;;2.63;1.33;;;;;;;;;;5016107;28;20080;-68
2024/01/31 04:22:53;;;;;;;2.25;1.55;;;;;;;;;;5021952;28;20029;-68
2024/01/31 04:25:19;;;;;;;9.40;1.98;;;;;;;;;;5023071;28;20525;-68
2024/01/31 04:27:44;;;;;;;4.65;1.58;;;;;;;;;;5029279;28;20465;-68
2024/01/31 04:30:11;;;;;;;4.35;2.08;;;;;;;;;;5014094;28;20454;-68
2024/01/31 04:32:36;;;;;;;4.85;1.90;;;;;;;;;;5015730;28;20077;-68
2024/01/31 04:35:01;;;;;;;2.00;1.33;;;;;;;;;;5015637;28;20069;-68
2024/01/31 04:37:27;;;;;;;4.22;1.58;;;;;;;;;;5027160;28;20033;-69
2024/01/31 04:39:52;;;;;;;5.40;2.45;;;;;;;;;;5017973;28;20042;-68
2024/01/31 04:42:18;;;;;;;6.43;2.13;;;;;;;;;;5031005;28;20043;-69
2024/01/31 04:44:45;;;;;;;1.98;1.15;;;;;;;;;;5023033;28;20113;-69
2024/01/31 04:47:11;;;;;;;3.13;1.52;;;;;;;;;;5016307;28;20065;-68
2024/01/31 04:49:37;;;;;;;3.03;1.38;;;;;;;;;;5013104;28;20157;-68
2024/01/31 04:52:02;;;;;;;14.10;1.77;;;;;;;;;;5013043;28;20038;-69
2024/01/31 04:54:27;;;;;;;1.83;1.23;;;;;;;;;;5023112;28;20037;-68
2024/01/31 04:56:53;;;;;;;4.30;1.75;;;;;;;;;;5019222;28;20156;-68
2024/01/31 04:59:19;;;;;;;3.55;1.50;;;;;;;;;;5016274;28;20030;-68
2024/01/31 05:01:44;;;;;;;11.73;2.33;;;;;;;;;;5016397;28;20185;-68
2024/01/31 05:04:10;;;;;;;3.05;1.85;;;;;;;;;;5015676;28;20575;-68
2024/01/31 05:06:35;;;;;;;7.78;1.77;;;;;;;;;;5017539;28;20164;-69
2024/01/31 05:09:01;;;;;;;9.32;3.90;;;;;;;;;;5021219;28;20068;-69
2024/01/31 05:11:26;;;;;;;30.13;8.18;;;;;;;;;;5013866;28;20124;-68
2024/01/31 05:13:51;;;;;;;10.65;6.55;;;;;;;;;;5016047;28;20026;-68
2024/01/31 05:16:17;;;;;;;12.95;5.22;;;;;;;;;;5019003;28;20456;-69
2024/01/31 05:18:42;;;;;;;8.02;4.13;;;;;;;;;;5013814;28;20512;-68
2024/01/31 05:21:10;;;;;;;15.05;3.22;;;;;;;;;;5024165;28;20037;-68
2024/01/31 05:23:38;;;;;;;2.90;1.65;;;;;;;;;;5025845;28;20046;-70
2024/01/31 05:26:08;;;;;;;5.72;1.73;;;;;;;;;;5016977;28;20037;-69
2024/01/31 05:28:34;;;;;;;8.85;1.73;;;;;;;;;;5014955;28;20513;-68
2024/01/31 05:30:59;;;;;;;2.53;1.60;;;;;;;;;;5013626;28;20163;-68
2024/01/31 05:33:24;;;;;;;6.00;1.88;;;;;;;;;;5015962;28;20041;-68
2024/01/31 05:35:50;;;;;;;3.88;1.92;;;;;;;;;;5018842;28;20038;-69
2024/01/31 05:38:15;;;;;;;3.63;1.55;;;;;;;;;;5017105;28;20026;-68
2024/01/31 05:40:42;;;;;;;3.45;2.30;;;;;;;;;;5016041;28;20049;-68
2024/01/31 05:43:07;;;;;;;5.75;1.75;;;;;;;;;;5014890;28;20673;-68
2024/01/31 05:45:35;;;;;;;3.45;1.98;;;;;;;;;;5021350;28;20030;-68
2024/01/31 05:48:01;;;;;;;6.10;2.63;;;;;;;;;;5009672;28;20042;-69
2024/01/31 05:50:27;;;;;;;20.98;3.05;;;;;;;;;;5014371;28;20033;-69
2024/01/31 05:52:52;;;;;;;27.30;5.13;;;;;;;;;;5021818;28;20108;-68
2024/01/31 05:55:18;;;;;;;7.85;3.10;;;;;;;;;;5018400;28;20075;-68
2024/01/31 05:57:48;;;;;;;4.78;2.90;;;;;;;;;;5015508;28;20037;-68
2024/01/31 06:00:14;;;;;;;10.65;2.30;;;;;;;;;;5014891;28;20110;-68
2024/01/31 06:02:39;;;;;;;4.20;2.15;;;;;;;;;;5013642;28;20048;-69
2024/01/31 06:05:05;;;;;;;8.57;2.50;;;;;;;;;;5022872;28;20120;-69
2024/01/31 06:07:30;;;;;;;5.50;2.60;;;;;;;;;;5026445;28;20068;-68
2024/01/31 06:09:56;;;;;;;5.75;2.28;;;;;;;;;;5022410;28;20046;-68
2024/01/31 06:12:21;;;;;;;8.13;2.42;;;;;;;;;;5023730;28;20037;-69
2024/01/31 06:14:46;;;;;;;15.63;3.88;;;;;;;;;;5021663;28;20461;-68
2024/01/31 06:17:14;;;;;;;11.02;2.60;;;;;;;;;;5021327;28;20340;-68
2024/01/31 06:19:39;;;;;;;8.63;3.38;;;;;;;;;;5016966;28;20044;-67
2024/01/31 06:22:07;;;;;;;6.00;2.47;;;;;;;;;;5015360;28;20050;-68
2024/01/31 06:24:32;;;;;;;7.65;2.60;;;;;;;;;;5011317;28;20037;-68
2024/01/31 06:26:57;;;;;;;9.68;2.00;;;;;;;;;;5013177;28;20443;-69
2024/01/31 06:29:23;;;;;;;12.15;2.47;;;;;;;;;;5021379;28;20034;-68
2024/01/31 06:31:48;;;;;;;7.22;2.40;;;;;;;;;;5018017;28;20033;-68
2024/01/31 06:34:14;;;;;;;11.82;2.30;;;;;;;;;;5020213;28;20061;-68
2024/01/31 06:36:40;;;;;;;10.60;1.80;;;;;;;;;;5017670;28;20065;-68
2024/01/31 06:39:05;;;;;;;7.53;1.92;;;;;;;;;;5012745;28;20058;-68
2024/01/31 06:41:31;;;;;;;9.90;2.92;;;;;;;;;;5020154;28;20068;-68
2024/01/31 06:43:57;;;;;;;14.25;2.65;;;;;;;;;;5016663;28;20033;-69
2024/01/31 06:46:22;;;;;;;6.07;2.33;;;;;;;;;;5018291;28;20050;-68
2024/01/31 06:48:48;;;;;;;8.55;3.17;;;;;;;;;;5015375;28;20065;-68
2024/01/31 06:51:13;;;;;;;8.45;3.38;;;;;;;;;;5022873;28;20029;-68
2024/01/31 06:53:38;;;;;;;14.00;2.53;;;;;;;;;;5011272;28;20037;-68
2024/01/31 06:56:04;;;;;;;7.43;2.30;;;;;;;;;;5022463;28;20030;-68
2024/01/31 06:58:31;;;;;;;9.63;2.50;;;;;;;;;;5027773;28;20033;-68
2024/01/31 07:00:59;;;;;;;9.55;2.35;;;;;;;;;;5017904;28;20049;-68
2024/01/31 07:03:25;;;;;;;6.68;3.30;;;;;;;;;;5016256;28;20037;-69
2024/01/31 07:05:50;;;;;;;6.63;2.42;;;;;;;;;;5013097;28;20083;-69
2024/01/31 07:08:15;;;;;;;5.80;2.25;;;;;;;;;;5026637;28;20084;-68
2024/01/31 07:10:41;;;;;;;12.32;2.00;;;;;;;;;;4996590;28;20168;-70
2024/01/31 07:13:06;;;;;;;6.30;2.28;;;;;;;;;;5019833;28;20429;-69
2024/01/31 07:15:31;;;;;;;9.35;2.20;;;;;;;;;;5011489;28;20564;-68
2024/01/31 07:17:57;;;;;;;20.00;2.30;;;;;;;;;;5012249;28;20562;-68
2024/01/31 07:20:22;;;;;;;8.32;3.08;;;;;;;;;;5016793;28;20821;-69
2024/01/31 07:22:47;;;;;;;14.00;2.90;;;;;;;;;;5020337;28;20071;-69
2024/01/31 07:25:15;;;;;;;13.10;3.00;;;;;;;;;;5014289;28;20076;-68
2024/01/31 07:27:41;;;;;;;10.85;2.33;;;;;;;;;;5029046;28;20037;-68
2024/01/31 07:30:10;;;;;;;14.57;3.20;;;;;;;;;;5015577;28;20041;-70
2024/01/31 07:32:36;;;;;;;7.45;3.08;;;;;;;;;;4998235;28;20573;-69
2024/01/31 07:35:03;;;;;;;17.42;4.32;;;;;;;;;;5010460;28;20029;-69
2024/01/31 07:37:28;;;;;;;22.02;2.75;;;;;;;;;;5031189;28;20088;-68
2024/01/31 07:39:56;;;;;;;6.75;3.20;;;;;;;;;;5013071;28;20074;-68
2024/01/31 07:42:21;;;;;;;7.57;3.17;;;;;;;;;;5020903;28;20018;-68
2024/01/31 07:44:47;;;;;;;5.70;2.45;;;;;;;;;;5014958;28;20493;-68
2024/01/31 07:47:13;;;;;;;8.57;2.80;;;;;;;;;;5013084;28;20065;-68
2024/01/31 07:49:41;;;;;;;3.60;1.42;;;;;;;;;;4996273;28;20109;-69
2024/01/31 07:52:06;;;;;;;5.65;1.88;;;;;;;;;;5010322;28;20052;-68
2024/01/31 07:54:32;;;;;;;8.57;1.50;;;;;;;;;;5007148;28;20117;-68
2024/01/31 07:56:57;;;;;;;12.77;2.20;;;;;;;;;;5008898;28;20076;-69
2024/01/31 07:59:22;;;;;;;3.58;1.33;;;;;;;;;;5015085;28;20374;-69
2024/01/31 08:01:48;;;;;;;11.05;1.52;;;;;;;;;;5015879;28;20044;-69
2024/01/31 08:04:13;;;;;;;11.65;1.92;;;;;;;;;;5011023;28;20045;-68
2024/01/31 08:06:42;;;;;;;9.80;1.60;;;;;;;;;;5010762;28;20038;-69
2024/01/31 08:09:07;;;;;;;9.68;2.10;;;;;;;;;;5016414;28;20108;-69
2024/01/31 08:11:33;;;;;;;10.35;2.13;;;;;;;;;;5016635;28;20026;-68
2024/01/31 08:13:58;;;;;;;7.35;1.67;;;;;;;;;;5018607;28;20067;-68
2024/01/31 08:16:23;;;;;;;18.25;1.77;;;;;;;;;;5005727;28;20041;-68
2024/01/31 08:18:49;;;;;;;5.10;1.48;;;;;;;;;;5016983;28;20468;-69
2024/01/31 08:21:14;;;;;;;9.85;2.65;;;;;;;;;;5024743;28;20044;-68
2024/01/31 08:23:39;;;;;;;6.95;1.45;;;;;;;;;;5030530;28;20044;-68
2024/01/31 08:26:06;;;;;;;6.70;1.60;;;;;;;;;;5025483;28;20130;-68
2024/01/31 08:28:31;;;;;;;5.45;1.58;;;;;;;;;;5022182;28;20061;-69
2024/01/31 08:30:56;;;;;;;20.63;2.17;;;;;;;;;;4994428;28;20481;-68
2024/01/31 08:33:22;;;;;;;6.07;2.22;;;;;;;;;;5028277;28;20113;-68
2024/01/31 08:35:47;;;;;;;7.28;1.70;;;;;;;;;;5014101;28;20123;-69
2024/01/31 08:38:12;;;;;;;5.30;2.40;;;;;;;;;;5017604;28;20045;-69
2024/01/31 08:40:38;;;;;;;5.55;1.67;;;;;;;;;;5014176;28;20080;-68
2024/01/31 08:43:03;;;;;;;11.32;2.20;;;;;;;;;;5006291;28;20038;-68
2024/01/31 08:45:29;;;;;;;4.95;1.60;;;;;;;;;;5016557;28;20084;-68
2024/01/31 08:47:54;;;;;;;15.60;2.00;;;;;;;;;;5017196;28;20381;-68
2024/01/31 08:50:19;;;;;;;11.10;2.15;;;;;;;;;;5015241;28;20473;-69
2024/01/31 08:52:45;;;;;;;9.20;2.53;;;;;;;;;;5025556;28;20037;-69
2024/01/31 08:55:12;;;;;;;6.85;2.20;;;;;;;;;;5011124;28;20042;-69
2024/01/31 08:57:38;;;;;;;4.28;1.85;;;;;;;;;;5011872;28;20118;-69
2024/01/31 09:00:05;;;;;;;4.75;2.20;;;;;;;;;;5018585;28;20049;-69
2024/01/31 09:02:30;;;;;;;14.35;2.55;;;;;;;;;;5023473;28;20033;-69
2024/01/31 09:04:55;;;;;;;3.13;1.30;;;;;;;;;;5018175;28;20065;-69
2024/01/31 09:07:21;;;;;;;4.15;1.52;;;;;;;;;;5014851;28;20042;-69
2024/01/31 09:09:46;;;;;;;4.05;1.20;;;;;;;;;;5013651;28;20044;-70
2024/01/31 09:12:12;;;;;;;5.70;1.13;;;;;;;;;;5016679;28;20042;-68
2024/01/31 09:14:38;;;;;;;4.80;1.60;;;;;;;;;;5016307;28;20046;-68
2024/01/31 09:17:03;;;;;;;5.57;1.33;;;;;;;;;;5012738;28;20517;-69
2024/01/31 09:19:29;;;;;;;4.15;1.42;;;;;;;;;;5017081;28;20069;-69
2024/01/31 09:21:54;;;;;;;4.93;1.20;;;;;;;;;;5025956;28;20037;-68
2024/01/31 09:24:19;;;;;;;5.57;1.02;;;;;;;;;;5025873;28;20117;-68
2024/01/31 09:26:45;;;;;;;5.72;1.08;;;;;;;;;;5020836;28;20579;-69
2024/01/31 09:29:10;;;;;;;3.50;1.10;;;;;;;;;;5020620;28;20042;-68
2024/01/31 09:31:35;;;;;;;3.85;1.20;;;;;;;;;;5018425;28;20030;-68
2024/01/31 09:34:01;;;;;;;1.60;0.95;;;;;;;;;;5019499;28;20041;-69
2024/01/31 09:36:26;;;;;;;9.10;1.45;;;;;;;;;;5018678;28;20474;-69
2024/01/31 09:38:52;;;;;;;7.38;1.90;;;;;;;;;;5019491;28;20065;-69
2024/01/31 09:41:17;;;;;;;1.60;0.80;;;;;;;;;;5022347;28;20073;-69
2024/01/31 09:43:46;;;;;;;11.77;1.02;;;;;;;;;;5025646;28;20045;-69
2024/01/31 09:46:12;;;;;;;6.82;2.00;;;;;;;;;;5021591;28;20026;-69
2024/01/31 09:48:38;;;;;;;6.65;2.00;;;;;;;;;;5020753;28;20046;-69
2024/01/31 09:51:04;;;;;;;8.57;1.98;;;;;;;;;;5015248;28;20042;-70
2024/01/31 09:53:36;;;;;;;10.13;2.70;;;;;;;;;;5014339;28;20117;-69
2024/01/31 09:56:02;;;;;;;7.82;2.42;;;;;;;;;;5030290;28;20045;-68
2024/01/31 09:58:27;;;;;;;22.10;5.32;;;;;;;;;;5013566;28;20040;-69
2024/01/31 10:00:54;;;;;;;13.80;3.35;;;;;;;;;;4998915;28;20034;-69
2024/01/31 10:03:19;;;;;;;7.65;2.50;;;;;;;;;;5019693;28;20457;-69
2024/01/31 10:05:45;;;;;;;18.40;3.83;;;;;;;;;;5013274;28;20084;-69
2024/01/31 10:08:10;;;;;;;9.68;1.83;;;;;;;;;;5014387;28;20034;-69
2024/01/31 10:10:36;;;;;;;13.13;2.25;;;;;;;;;;5017646;28;20493;-68
2024/01/31 10:13:03;;;;;;;14.77;3.25;;;;;;;;;;5027290;28;20095;-69
2024/01/31 10:15:28;;;;;;;10.05;2.35;;;;;;;;;;4996831;28;20566;-68
2024/01/31 10:17:54;;;;;;;3.38;1.20;;;;;;;;;;5023500;28;20053;-69
2024/01/31 10:20:19;;;;;;;4.07;1.67;;;;;;;;;;5026842;28;20068;-69
2024/01/31 10:22:45;;;;;;;3.97;1.33;;;;;;;;;;5007647;28;20409;-69
2024/01/31 10:25:15;;;;;;;7.03;1.45;;;;;;;;;;5015864;28;20070;-69
2024/01/31 10:27:42;;;;;;;4.03;1.73;;;;;;;;;;5014390;28;20495;-69
2024/01/31 10:30:08;;;;;;;8.63;1.40;;;;;;;;;;4997575;28;20033;-69
2024/01/31 10:32:34;;;;;;;10.85;1.85;;;;;;;;;;5018228;28;20168;-69
2024/01/31 10:35:01;;;;;;;3.88;1.70;;;;;;;;;;5000695;28;20049;-68
2024/01/31 10:37:26;;;;;;;7.85;1.92;;;;;;;;;;5020688;28;20470;-69
2024/01/31 10:39:52;;;;;;;9.95;1.63;;;;;;;;;;5014622;28;20128;-69
2024/01/31 10:42:18;;;;;;;9.52;1.60;;;;;;;;;;5012830;28;20112;-69
2024/01/31 10:44:43;;;;;;;6.13;1.48;;;;;;;;;;5021303;28;20029;-69
2024/01/31 10:47:09;;;;;;;5.80;1.25;;;;;;;;;;5003982;28;20037;-69
2024/01/31 10:49:34;;;;;;;5.45;1.27;;;;;;;;;;5021298;28;20139;-69
2024/01/31 10:52:02;;;;;;;9.35;1.10;;;;;;;;;;4997215;28;20381;-69
2024/01/31 10:54:30;;;;;;;4.65;1.30;;;;;;;;;;5017470;28;20047;-68
2024/01/31 10:56:56;;;;;;;5.22;1.20;;;;;;;;;;5002205;28;20499;-69
2024/01/31 10:59:22;;;;;;;4.78;1.15;;;;;;;;;;5023907;28;20064;-69
2024/01/31 11:01:58;;;;;;;11.55;1.15;;;;;;;;;;5006669;28;20041;-68
2024/01/31 11:04:24;;;;;;;10.73;1.42;;;;;;;;;;5014951;28;20050;-68
2024/01/31 11:06:50;;;;;;;4.55;1.33;;;;;;;;;;5020215;28;20112;-69
2024/01/31 11:09:17;;;;;;;5.13;1.40;;;;;;;;;;5022361;28;20087;-70
2024/01/31 11:11:42;;;;;;;5.43;0.70;;;;;;;;;;5022441;28;20041;-69
2024/01/31 11:14:09;;;;;;;8.27;1.33;;;;;;;;;;5020457;28;20045;-69
2024/01/31 11:16:34;;;;;;;5.20;1.52;;;;;;;;;;5015221;28;20046;-68
2024/01/31 11:19:02;;;;;;;3.42;1.27;;;;;;;;;;5000725;28;20032;-69
2024/01/31 11:21:27;;;;;;;6.60;0.93;;;;;;;;;;5006785;28;20443;-69
2024/01/31 11:23:53;;;;;;;5.90;1.33;;;;;;;;;;5019337;28;20117;-68
2024/01/31 11:26:28;;;;;;;11.55;1.77;;;;;;;;;;5024607;28;20132;-68
2024/01/31 11:28:55;;;;;;;9.98;1.80;;;;;;;;;;4988720;28;20382;-69
2024/01/31 11:31:20;;;;;;;7.65;1.55;;;;;;;;;;5012351;28;20540;-68
2024/01/31 11:33:46;;;;;;;6.28;1.80;;;;;;;;;;5004844;28;20109;-68
2024/01/31 11:36:11;;;;;;;6.18;1.40;;;;;;;;;;5010869;28;20038;-69
2024/01/31 11:38:36;;;;;;;7.28;1.38;;;;;;;;;;5015902;28;20044;-69
2024/01/31 11:41:02;;;;;;;2.40;1.00;;;;;;;;;;5022161;28;20087;-69
2024/01/31 11:43:27;;;;;;;3.67;1.05;;;;;;;;;;5012909;28;20033;-69
2024/01/31 11:45:53;;;;;;;6.18;1.60;;;;;;;;;;5014502;28;20033;-69
2024/01/31 11:48:19;;;;;;;3.70;1.23;;;;;;;;;;5015186;28;20525;-68
2024/01/31 11:50:44;;;;;;;3.75;1.10;;;;;;;;;;5017691;28;20548;-70
2024/01/31 11:53:10;;;;;;;6.38;1.23;;;;;;;;;;5018645;28;20128;-69
2024/01/31 11:55:35;;;;;;;5.70;1.08;;;;;;;;;;5020639;28;20041;-69
2024/01/31 11:58:01;;;;;;;6.68;1.08;;;;;;;;;;5022794;28;20041;-69
2024/01/31 12:00:27;;;;;;;5.28;0.98;;;;;;;;;;5020285;28;20218;-68
2024/01/31 12:02:52;;;;;;;8.07;1.65;;;;;;;;;;5012685;28;20042;-69
2024/01/31 12:05:18;;;;;;;2.35;0.80;;;;;;;;;;5014070;28;20048;-69
2024/01/31 12:07:54;;;;;;;5.60;1.50;;;;;;;;;;5012101;28;20042;-69
2024/01/31 12:10:19;;;;;;;5.25;0.90;;;;;;;;;;5002332;28;20049;-68
2024/01/31 12:12:45;;;;;;;6.80;1.70;;;;;;;;;;5016487;28;20034;-69
2024/01/31 12:15:13;;;;;;;6.65;1.40;;;;;;;;;;5011575;28;20048;-68
2024/01/31 12:17:39;;;;;;;5.70;1.63;;;;;;;;;;5011641;28;20455;-69
2024/01/31 12:20:10;;;;;;;7.45;1.20;;;;;;;;;;5014318;28;20042;-68
2024/01/31 12:22:37;;;;;;;5.35;1.38;;;;;;;;;;5025161;28;20037;-69
2024/01/31 12:25:04;;;;;;;5.63;1.95;;;;;;;;;;5026611;28;20029;-70
2024/01/31 12:27:29;;;;;;;4.20;1.20;;;;;;;;;;5019513;28;20393;-69
2024/01/31 12:29:55;;;;;;;11.65;1.52;;;;;;;;;;5014047;28;20030;-69
2024/01/31 12:32:20;;;;;;;6.55;1.48;;;;;;;;;;5024946;28;20030;-69
2024/01/31 12:34:46;;;;;;;5.82;1.20;;;;;;;;;;5015370;28;20037;-68
2024/01/31 12:37:11;;;;;;;7.03;1.30;;;;;;;;;;5018383;28;20045;-69
2024/01/31 12:39:36;;;;;;;4.65;1.20;;;;;;;;;;5021579;28;20030;-69
2024/01/31 12:42:03;;;;;;;6.55;1.67;;;;;;;;;;5029826;28;20044;-69
2024/01/31 12:44:29;;;;;;;2.85;1.25;;;;;;;;;;5032055;28;20584;-69
2024/01/31 12:46:54;;;;;;;8.05;2.05;;;;;;;;;;5018144;28;20037;-68
2024/01/31 12:49:19;;;;;;;7.97;1.33;;;;;;;;;;5022402;28;20547;-68
2024/01/31 12:51:45;;;;;;;10.52;2.17;;;;;;;;;;5025296;28;20041;-69
2024/01/31 12:54:10;;;;;;;8.20;1.48;;;;;;;;;;5017494;28;20476;-68
2024/01/31 12:56:35;;;;;;;11.55;2.05;;;;;;;;;;5020782;28;20100;-68
2024/01/31 12:59:01;;;;;;;6.47;1.88;;;;;;;;;;5021895;28;20120;-69
2024/01/31 13:01:26;;;;;;;4.28;1.48;;;;;;;;;;5024471;28;20029;-68
2024/01/31 13:03:51;;;;;;;4.72;1.50;;;;;;;;;;5014610;28;20040;-69
2024/01/31 13:06:17;;;;;;;9.23;2.00;;;;;;;;;;5014254;28;20046;-69
2024/01/31 13:08:42;;;;;;;6.88;1.88;;;;;;;;;;5000077;28;20490;-69
2024/01/31 13:11:09;;;;;;;7.40;2.33;;;;;;;;;;5015298;28;20096;-68
2024/01/31 13:13:38;;;;;;;4.75;1.77;;;;;;;;;;5017581;28;20121;-69
2024/01/31 13:16:05;;;;;;;7.25;1.60;;;;;;;;;;5021522;28;20381;-68
2024/01/31 13:18:30;;;;;;;8.32;2.33;;;;;;;;;;4996778;28;20481;-68
2024/01/31 13:20:56;;;;;;;9.18;2.40;;;;;;;;;;5022112;28;20048;-69
2024/01/31 13:23:21;;;;;;;5.15;1.75;;;;;;;;;;5023719;28;20036;-68
2024/01/31 13:25:46;;;;;;;5.03;2.35;;;;;;;;;;5017730;28;20512;-68
2024/01/31 13:28:14;;;;;;;11.57;3.10;;;;;;;;;;5015646;28;20469;-69
2024/01/31 13:30:40;;;;;;;9.35;2.40;;;;;;;;;;5013599;28;20063;-69
2024/01/31 13:33:05;;;;;;;6.25;2.17;;;;;;;;;;5003545;28;20056;-69
2024/01/31 13:35:31;;;;;;;2.55;1.40;;;;;;;;;;5016758;28;20041;-68
2024/01/31 13:37:57;;;;;;;11.27;2.45;;;;;;;;;;5017090;28;20382;-68
2024/01/31 13:40:23;;;;;;;4.68;2.20;;;;;;;;;;5019377;28;20128;-69
2024/01/31 13:42:50;;;;;;;6.25;2.00;;;;;;;;;;5018236;28;20121;-69
2024/01/31 13:45:16;;;;;;;2.95;1.50;;;;;;;;;;5014253;28;20116;-69
2024/01/31 13:47:41;;;;;;;7.18;2.35;;;;;;;;;;5020705;28;20112;-69
2024/01/31 13:50:07;;;;;;;4.40;1.25;;;;;;;;;;5023051;28;20488;-69
2024/01/31 13:52:32;;;;;;;3.60;2.00;;;;;;;;;;5020779;28;20453;-69
2024/01/31 13:54:57;;;;;;;4.47;1.98;;;;;;;;;;5023004;28;20474;-69
2024/01/31 13:57:23;;;;;;;11.40;2.00;;;;;;;;;;5022696;28;20567;-69
2024/01/31 13:59:48;;;;;;;10.90;1.98;;;;;;;;;;5021629;28;20108;-69
2024/01/31 14:02:13;;;;;;;5.13;1.65;;;;;;;;;;5021672;28;20041;-70
2024/01/31 14:04:39;;;;;;;8.68;1.75;;;;;;;;;;5015598;28;20121;-69
2024/01/31 14:07:04;;;;;;;9.15;1.50;;;;;;;;;;5021765;28;20065;-69
2024/01/31 14:09:29;;;;;;;9.27;1.60;;;;;;;;;;5024662;28;20048;-68
2024/01/31 14:11:55;;;;;;;4.93;1.75;;;;;;;;;;5020759;28;20034;-69
2024/01/31 14:14:20;;;;;;;7.05;1.70;;;;;;;;;;5013811;28;20029;-69
2024/01/31 14:16:45;;;;;;;7.70;2.92;;;;;;;;;;5021272;28;20041;-68
2024/01/31 14:19:11;;;;;;;10.68;2.67;;;;;;;;;;5020946;28;20037;-69
2024/01/31 14:21:36;;;;;;;6.40;1.75;;;;;;;;;;5014662;28;20026;-69
2024/01/31 14:24:02;;;;;;;5.78;2.20;;;;;;;;;;5011796;28;20096;-69
2024/01/31 14:26:27;;;;;;;5.53;1.52;;;;;;;;;;5023533;28;20477;-68
2024/01/31 14:28:53;;;;;;;7.50;2.13;;;;;;;;;;5024954;28;20033;-69
2024/01/31 14:31:18;;;;;;;8.30;1.67;;;;;;;;;;5019317;28;20049;-69